Liberte — WDJ3567 — position and weather

sailwx.info

Track history (hours):
 
Tides and Currents Weather Stations Pressure Air Temp Water Temp Dewpoint Dewpoint Depression Visibility Wind Speed Wind Dir Waves Ship Positions

Liberte

Owner: Chalos, Michael G, Oyster Bay, NY. More information available from US FCC via Universal Licensing System and Coast Guard Vessel Documentation Center.

Last reported at 2017-Oct-15 11:29 UTC. Time now 2017-Oct-20 01:18 UTC.
Position N 40°45' W 073°58'.

Length 17 m.

Type: Sailing vessel. MMSI: 367769190.

Date/timePositionNaut miles runAvg speedWind from/ knotsBaromVisibWave heightAir tempDewpointWater temp
2017-Oct-15 11:29N 40°45' W 073°58'3 7.1
2017-Oct-15 11:00N 40°42' W 074°00'4 8.3
2017-Oct-15 10:30N 40°38' W 074°02'5 8.6
2017-Oct-15 09:59N 40°34' W 074°02'149 4.8
2017-Oct-14 02:39N 38°58' W 076°29'0 0.0
2017-Oct-14 02:30N 38°58' W 076°29'0 0.0
2017-Oct-14 01:57N 38°58' W 076°29'  
2017-Oct-10 23:04N 38°58' W 076°29'0 0.1
2017-Oct-10 22:58N 38°58' W 076°29'0 0.0
2017-Oct-10 22:28N 38°58' W 076°29'0 0.0
2017-Oct-10 21:58N 38°58' W 076°29'0 0.0
2017-Oct-10 21:28N 38°58' W 076°29'0 0.0
2017-Oct-10 20:58N 38°58' W 076°29'0 0.0
2017-Oct-10 20:28N 38°58' W 076°29'0 0.0
2017-Oct-10 19:58N 38°58' W 076°29'0 0.0
2017-Oct-10 19:28N 38°58' W 076°29'0 0.0
2017-Oct-10 18:58N 38°58' W 076°29'0 0.0
2017-Oct-10 18:28N 38°58' W 076°29'0 0.0
2017-Oct-10 17:58N 38°58' W 076°29'0 0.0
2017-Oct-10 17:28N 38°58' W 076°29'0 0.0
2017-Oct-10 16:58N 38°58' W 076°29'0 0.0
2017-Oct-10 16:30N 38°58' W 076°29'2 3.7
2017-Oct-10 16:00N 38°58' W 076°26'2 4.7
2017-Oct-10 15:31N 38°58' W 076°24'2 3.4
2017-Oct-10 15:00N 38°58' W 076°26'2 2.3
2017-Oct-10 13:57N 38°58' W 076°29'0 0.0
2017-Oct-10 13:30N 38°58' W 076°29'0 0.0
2017-Oct-10 13:00N 38°58' W 076°29'0 0.0
2017-Oct-10 12:30N 38°58' W 076°29'0 0.0
2017-Oct-10 11:57N 38°58' W 076°29'0 0.0
2017-Oct-10 00:38N 38°58' W 076°29'0 0.0
2017-Oct-10 00:29N 38°58' W 076°29'0 0.0
2017-Oct-09 23:59N 38°58' W 076°29'0 0.0
2017-Oct-09 23:29N 38°58' W 076°29'0 0.0
2017-Oct-09 22:59N 38°58' W 076°29'0 0.0
2017-Oct-09 22:29N 38°58' W 076°29'0 0.0
2017-Oct-09 21:59N 38°58' W 076°29'1 2.0
2017-Oct-09 21:30N 38°59' W 076°28'1 1.0
2017-Oct-09 21:00N 38°59' W 076°29'0 0.0
2017-Oct-09 20:30N 38°59' W 076°29'0 0.0
2017-Oct-09 20:00N 38°59' W 076°29'0 0.0
2017-Oct-09 19:30N 38°59' W 076°29'0 0.0
2017-Oct-09 19:00N 38°59' W 076°29'0 0.0
2017-Oct-09 18:30N 38°59' W 076°29'0 0.0
2017-Oct-09 18:00N 38°59' W 076°29'0 0.0
2017-Oct-09 17:30N 38°59' W 076°29'0 0.0
2017-Oct-09 17:00N 38°59' W 076°29'0 0.0
2017-Oct-09 16:30N 38°59' W 076°29'0 0.0
2017-Oct-09 15:57N 38°59' W 076°29'0 0.0
2017-Oct-09 15:30N 38°59' W 076°29'0 0.0
2017-Oct-09 15:00N 38°59' W 076°29'0 0.0
2017-Oct-09 14:30N 38°59' W 076°29'0 0.0
2017-Oct-09 14:00N 38°59' W 076°29'0 0.0
2017-Oct-09 13:30N 38°59' W 076°29'0 0.0
2017-Oct-09 13:00N 38°59' W 076°29'0 0.0
2017-Oct-09 12:30N 38°59' W 076°29'0 0.0
2017-Oct-09 12:00N 38°59' W 076°29'0 0.0
2017-Oct-09 11:30N 38°59' W 076°29'0 0.0
2017-Oct-09 02:54N 38°59' W 076°29'0 0.0
2017-Oct-09 02:31N 38°59' W 076°29'0 0.0
2017-Oct-09 02:01N 38°59' W 076°29'0 0.0
2017-Oct-09 01:30N 38°59' W 076°29'0 0.0
2017-Oct-09 01:01N 38°59' W 076°29'0 0.0
2017-Oct-09 00:28N 38°59' W 076°29'0 0.0
2017-Oct-09 00:00N 38°59' W 076°29'  
Track history (hours):
 
Tides and Currents Weather Stations Pressure Air Temp Water Temp Dewpoint Dewpoint Depression Visibility Wind Speed Wind Dir Waves Ship Positions

Liberte

Owner: Chalos, Michael G, Oyster Bay, NY. More information available from US FCC via Universal Licensing System and Coast Guard Vessel Documentation Center.

Last reported at 2017-Oct-15 11:29 UTC. Time now 2017-Oct-20 01:18 UTC.
Position N 40°45' W 073°58'.

Length 17 m.

Type: Sailing vessel. MMSI: 367769190.

Date/timePositionNaut miles runAvg speedWind from/ knotsBaromVisibWave heightAir tempDewpointWater temp
2017-Oct-15 11:29N 40°45' W 073°58'3 7.1
2017-Oct-15 11:00N 40°42' W 074°00'4 8.3
2017-Oct-15 10:30N 40°38' W 074°02'5 8.6
2017-Oct-15 09:59N 40°34' W 074°02'149 4.8
2017-Oct-14 02:39N 38°58' W 076°29'0 0.0
2017-Oct-14 02:30N 38°58' W 076°29'0 0.0
2017-Oct-14 01:57N 38°58' W 076°29'  
2017-Oct-10 23:04N 38°58' W 076°29'0 0.1
2017-Oct-10 22:58N 38°58' W 076°29'0 0.0
2017-Oct-10 22:28N 38°58' W 076°29'0 0.0
2017-Oct-10 21:58N 38°58' W 076°29'0 0.0
2017-Oct-10 21:28N 38°58' W 076°29'0 0.0
2017-Oct-10 20:58N 38°58' W 076°29'0 0.0
2017-Oct-10 20:28N 38°58' W 076°29'0 0.0
2017-Oct-10 19:58N 38°58' W 076°29'0 0.0
2017-Oct-10 19:28N 38°58' W 076°29'0 0.0
2017-Oct-10 18:58N 38°58' W 076°29'0 0.0
2017-Oct-10 18:28N 38°58' W 076°29'0 0.0
2017-Oct-10 17:58N 38°58' W 076°29'0 0.0
2017-Oct-10 17:28N 38°58' W 076°29'0 0.0
2017-Oct-10 16:58N 38°58' W 076°29'0 0.0
2017-Oct-10 16:30N 38°58' W 076°29'2 3.7
2017-Oct-10 16:00N 38°58' W 076°26'2 4.7
2017-Oct-10 15:31N 38°58' W 076°24'2 3.4
2017-Oct-10 15:00N 38°58' W 076°26'2 2.3
2017-Oct-10 13:57N 38°58' W 076°29'0 0.0
2017-Oct-10 13:30N 38°58' W 076°29'0 0.0
2017-Oct-10 13:00N 38°58' W 076°29'0 0.0
2017-Oct-10 12:30N 38°58' W 076°29'0 0.0
2017-Oct-10 11:57N 38°58' W 076°29'0 0.0
2017-Oct-10 00:38N 38°58' W 076°29'0 0.0
2017-Oct-10 00:29N 38°58' W 076°29'0 0.0
2017-Oct-09 23:59N 38°58' W 076°29'0 0.0
2017-Oct-09 23:29N 38°58' W 076°29'0 0.0
2017-Oct-09 22:59N 38°58' W 076°29'0 0.0
2017-Oct-09 22:29N 38°58' W 076°29'0 0.0
2017-Oct-09 21:59N 38°58' W 076°29'1 2.0
2017-Oct-09 21:30N 38°59' W 076°28'1 1.0
2017-Oct-09 21:00N 38°59' W 076°29'0 0.0
2017-Oct-09 20:30N 38°59' W 076°29'0 0.0
2017-Oct-09 20:00N 38°59' W 076°29'0 0.0
2017-Oct-09 19:30N 38°59' W 076°29'0 0.0
2017-Oct-09 19:00N 38°59' W 076°29'0 0.0
2017-Oct-09 18:30N 38°59' W 076°29'0 0.0
2017-Oct-09 18:00N 38°59' W 076°29'0 0.0
2017-Oct-09 17:30N 38°59' W 076°29'0 0.0
2017-Oct-09 17:00N 38°59' W 076°29'0 0.0
2017-Oct-09 16:30N 38°59' W 076°29'0 0.0
2017-Oct-09 15:57N 38°59' W 076°29'0 0.0
2017-Oct-09 15:30N 38°59' W 076°29'0 0.0
2017-Oct-09 15:00N 38°59' W 076°29'0 0.0
2017-Oct-09 14:30N 38°59' W 076°29'0 0.0
2017-Oct-09 14:00N 38°59' W 076°29'0 0.0
2017-Oct-09 13:30N 38°59' W 076°29'0 0.0
2017-Oct-09 13:00N 38°59' W 076°29'0 0.0
2017-Oct-09 12:30N 38°59' W 076°29'0 0.0
2017-Oct-09 12:00N 38°59' W 076°29'0 0.0
2017-Oct-09 11:30N 38°59' W 076°29'0 0.0
2017-Oct-09 02:54N 38°59' W 076°29'0 0.0
2017-Oct-09 02:31N 38°59' W 076°29'0 0.0
2017-Oct-09 02:01N 38°59' W 076°29'0 0.0
2017-Oct-09 01:30N 38°59' W 076°29'0 0.0
2017-Oct-09 01:01N 38°59' W 076°29'0 0.0
2017-Oct-09 00:28N 38°59' W 076°29'0 0.0
2017-Oct-09 00:00N 38°59' W 076°29'  

Dump ship's entire track history